sensor_id;sensor_type;location;lat;lon;timestamp;P1;durP1;ratioP1;P2;durP2;ratioP2
11653;SDS011;5883;48.818;9.114;2022-11-20T00:01:33;69.15;;;10.98;;
11653;SDS011;5883;48.818;9.114;2022-11-20T00:03:59;64.70;;;10.85;;
11653;SDS011;5883;48.818;9.114;2022-11-20T00:06:26;50.65;;;10.25;;
11653;SDS011;5883;48.818;9.114;2022-11-20T00:08:53;60.08;;;10.05;;
11653;SDS011;5883;48.818;9.114;2022-11-20T00:11:21;49.38;;;9.52;;
11653;SDS011;5883;48.818;9.114;2022-11-20T00:13:49;52.88;;;9.27;;
11653;SDS011;5883;48.818;9.114;2022-11-20T00:16:17;48.40;;;10.93;;
11653;SDS011;5883;48.818;9.114;2022-11-20T00:18:45;72.10;;;11.38;;
11653;SDS011;5883;48.818;9.114;2022-11-20T00:21:13;58.65;;;10.05;;
11653;SDS011;5883;48.818;9.114;2022-11-20T00:23:39;50.00;;;10.13;;
11653;SDS011;5883;48.818;9.114;2022-11-20T00:26:07;12.60;;;8.43;;
11653;SDS011;5883;48.818;9.114;2022-11-20T00:28:33;13.02;;;8.48;;
11653;SDS011;5883;48.818;9.114;2022-11-20T00:31:01;12.68;;;8.95;;
11653;SDS011;5883;48.818;9.114;2022-11-20T00:33:28;13.20;;;8.73;;
11653;SDS011;5883;48.818;9.114;2022-11-20T00:35:59;12.23;;;9.30;;
11653;SDS011;5883;48.818;9.114;2022-11-20T00:38:27;12.32;;;8.65;;
11653;SDS011;5883;48.818;9.114;2022-11-20T00:40:54;11.55;;;8.25;;
11653;SDS011;5883;48.818;9.114;2022-11-20T00:43:21;11.32;;;7.22;;
11653;SDS011;5883;48.818;9.114;2022-11-20T00:45:47;11.32;;;7.85;;
11653;SDS011;5883;48.818;9.114;2022-11-20T00:48:14;8.05;;;7.25;;
11653;SDS011;5883;48.818;9.114;2022-11-20T00:50:40;9.10;;;6.90;;
11653;SDS011;5883;48.818;9.114;2022-11-20T00:53:09;10.48;;;7.13;;
11653;SDS011;5883;48.818;9.114;2022-11-20T00:55:35;12.50;;;9.15;;
11653;SDS011;5883;48.818;9.114;2022-11-20T00:58:08;12.40;;;9.15;;
11653;SDS011;5883;48.818;9.114;2022-11-20T01:00:34;9.88;;;8.05;;
11653;SDS011;5883;48.818;9.114;2022-11-20T01:03:01;10.00;;;7.60;;
11653;SDS011;5883;48.818;9.114;2022-11-20T01:05:27;8.77;;;6.90;;
11653;SDS011;5883;48.818;9.114;2022-11-20T01:07:54;6.93;;;5.57;;
11653;SDS011;5883;48.818;9.114;2022-11-20T01:10:21;6.07;;;4.80;;
11653;SDS011;5883;48.818;9.114;2022-11-20T01:12:48;6.07;;;4.40;;
11653;SDS011;5883;48.818;9.114;2022-11-20T01:15:34;5.85;;;4.30;;
11653;SDS011;5883;48.818;9.114;2022-11-20T01:18:01;6.53;;;5.45;;
11653;SDS011;5883;48.818;9.114;2022-11-20T01:20:28;9.30;;;5.07;;
11653;SDS011;5883;48.818;9.114;2022-11-20T01:22:54;5.78;;;4.75;;
11653;SDS011;5883;48.818;9.114;2022-11-20T01:25:22;5.65;;;4.97;;
11653;SDS011;5883;48.818;9.114;2022-11-20T01:27:48;7.45;;;5.25;;
11653;SDS011;5883;48.818;9.114;2022-11-20T01:30:16;7.50;;;4.55;;
11653;SDS011;5883;48.818;9.114;2022-11-20T01:32:42;6.97;;;4.78;;
11653;SDS011;5883;48.818;9.114;2022-11-20T01:35:09;5.00;;;4.47;;
11653;SDS011;5883;48.818;9.114;2022-11-20T01:37:35;4.82;;;4.13;;
11653;SDS011;5883;48.818;9.114;2022-11-20T01:40:02;6.70;;;4.10;;
11653;SDS011;5883;48.818;9.114;2022-11-20T01:42:30;5.22;;;4.60;;
11653;SDS011;5883;48.818;9.114;2022-11-20T01:47:59;5.07;;;4.32;;
11653;SDS011;5883;48.818;9.114;2022-11-20T01:50:26;5.57;;;4.28;;
11653;SDS011;5883;48.818;9.114;2022-11-20T01:52:55;5.50;;;4.28;;
11653;SDS011;5883;48.818;9.114;2022-11-20T01:55:23;4.78;;;3.97;;
11653;SDS011;5883;48.818;9.114;2022-11-20T01:57:53;6.43;;;4.00;;
11653;SDS011;5883;48.818;9.114;2022-11-20T02:00:20;5.05;;;4.22;;
11653;SDS011;5883;48.818;9.114;2022-11-20T02:02:47;5.35;;;4.00;;
11653;SDS011;5883;48.818;9.114;2022-11-20T02:05:17;4.85;;;3.72;;
11653;SDS011;5883;48.818;9.114;2022-11-20T02:07:45;5.07;;;3.63;;
11653;SDS011;5883;48.818;9.114;2022-11-20T02:10:12;3.28;;;2.95;;
11653;SDS011;5883;48.818;9.114;2022-11-20T02:12:39;3.38;;;2.88;;
11653;SDS011;5883;48.818;9.114;2022-11-20T02:15:25;2.78;;;2.53;;
11653;SDS011;5883;48.818;9.114;2022-11-20T02:17:51;4.05;;;3.13;;
11653;SDS011;5883;48.818;9.114;2022-11-20T02:20:18;5.88;;;2.78;;
11653;SDS011;5883;48.818;9.114;2022-11-20T02:22:46;6.38;;;2.83;;
11653;SDS011;5883;48.818;9.114;2022-11-20T02:25:16;5.03;;;2.65;;
11653;SDS011;5883;48.818;9.114;2022-11-20T02:27:43;2.70;;;2.50;;
11653;SDS011;5883;48.818;9.114;2022-11-20T02:30:10;3.80;;;2.30;;
11653;SDS011;5883;48.818;9.114;2022-11-20T02:32:37;2.58;;;2.38;;
11653;SDS011;5883;48.818;9.114;2022-11-20T02:35:08;4.88;;;2.22;;
11653;SDS011;5883;48.818;9.114;2022-11-20T02:37:35;3.45;;;2.28;;
11653;SDS011;5883;48.818;9.114;2022-11-20T02:40:03;4.28;;;2.42;;
11653;SDS011;5883;48.818;9.114;2022-11-20T02:42:31;3.83;;;2.67;;
11653;SDS011;5883;48.818;9.114;2022-11-20T02:44:57;3.20;;;2.63;;
11653;SDS011;5883;48.818;9.114;2022-11-20T02:47:24;2.65;;;2.42;;
11653;SDS011;5883;48.818;9.114;2022-11-20T02:49:50;3.60;;;2.42;;
11653;SDS011;5883;48.818;9.114;2022-11-20T02:52:17;4.57;;;2.20;;
11653;SDS011;5883;48.818;9.114;2022-11-20T02:54:43;2.95;;;2.58;;
11653;SDS011;5883;48.818;9.114;2022-11-20T02:57:10;2.85;;;2.50;;
11653;SDS011;5883;48.818;9.114;2022-11-20T02:59:37;2.42;;;2.20;;
11653;SDS011;5883;48.818;9.114;2022-11-20T03:02:05;3.35;;;2.35;;
11653;SDS011;5883;48.818;9.114;2022-11-20T03:04:32;3.53;;;2.95;;
11653;SDS011;5883;48.818;9.114;2022-11-20T03:06:58;4.07;;;2.47;;
11653;SDS011;5883;48.818;9.114;2022-11-20T03:09:25;3.20;;;2.30;;
11653;SDS011;5883;48.818;9.114;2022-11-20T03:11:51;4.35;;;2.50;;
11653;SDS011;5883;48.818;9.114;2022-11-20T03:14:17;2.75;;;2.20;;
11653;SDS011;5883;48.818;9.114;2022-11-20T03:16:45;3.03;;;2.20;;
11653;SDS011;5883;48.818;9.114;2022-11-20T03:19:12;3.85;;;2.67;;
11653;SDS011;5883;48.818;9.114;2022-11-20T03:21:39;5.30;;;2.65;;
11653;SDS011;5883;48.818;9.114;2022-11-20T03:24:05;2.65;;;2.45;;
11653;SDS011;5883;48.818;9.114;2022-11-20T03:26:32;3.13;;;2.63;;
11653;SDS011;5883;48.818;9.114;2022-11-20T03:28:59;2.53;;;2.20;;
11653;SDS011;5883;48.818;9.114;2022-11-20T03:31:26;4.63;;;2.38;;
11653;SDS011;5883;48.818;9.114;2022-11-20T03:33:55;4.38;;;2.50;;
11653;SDS011;5883;48.818;9.114;2022-11-20T03:36:21;2.95;;;2.50;;
11653;SDS011;5883;48.818;9.114;2022-11-20T03:38:48;2.88;;;2.55;;
11653;SDS011;5883;48.818;9.114;2022-11-20T03:41:16;2.67;;;2.40;;
11653;SDS011;5883;48.818;9.114;2022-11-20T03:43:52;3.78;;;2.50;;
11653;SDS011;5883;48.818;9.114;2022-11-20T03:46:23;4.28;;;2.50;;
11653;SDS011;5883;48.818;9.114;2022-11-20T03:48:56;4.50;;;3.03;;
11653;SDS011;5883;48.818;9.114;2022-11-20T03:51:23;3.60;;;2.70;;
11653;SDS011;5883;48.818;9.114;2022-11-20T03:53:51;4.53;;;3.72;;
11653;SDS011;5883;48.818;9.114;2022-11-20T03:56:18;3.85;;;2.65;;
11653;SDS011;5883;48.818;9.114;2022-11-20T03:58:45;3.53;;;2.75;;
11653;SDS011;5883;48.818;9.114;2022-11-20T04:01:12;3.03;;;2.72;;
11653;SDS011;5883;48.818;9.114;2022-11-20T04:03:39;4.28;;;2.80;;
11653;SDS011;5883;48.818;9.114;2022-11-20T04:06:08;3.40;;;3.00;;
11653;SDS011;5883;48.818;9.114;2022-11-20T04:08:35;4.53;;;3.15;;
11653;SDS011;5883;48.818;9.114;2022-11-20T04:11:08;5.28;;;3.15;;
11653;SDS011;5883;48.818;9.114;2022-11-20T04:13:35;6.05;;;3.15;;
11653;SDS011;5883;48.818;9.114;2022-11-20T04:16:01;3.33;;;3.03;;
11653;SDS011;5883;48.818;9.114;2022-11-20T04:18:28;3.17;;;2.70;;
11653;SDS011;5883;48.818;9.114;2022-11-20T04:20:55;5.78;;;3.00;;
11653;SDS011;5883;48.818;9.114;2022-11-20T04:23:23;3.40;;;3.10;;
11653;SDS011;5883;48.818;9.114;2022-11-20T04:25:50;4.15;;;2.90;;
11653;SDS011;5883;48.818;9.114;2022-11-20T04:28:16;3.20;;;2.88;;
11653;SDS011;5883;48.818;9.114;2022-11-20T04:30:43;3.30;;;2.72;;
11653;SDS011;5883;48.818;9.114;2022-11-20T04:33:10;3.83;;;2.60;;
11653;SDS011;5883;48.818;9.114;2022-11-20T04:35:36;3.42;;;2.22;;
11653;SDS011;5883;48.818;9.114;2022-11-20T04:38:03;4.25;;;2.00;;
11653;SDS011;5883;48.818;9.114;2022-11-20T04:40:31;3.95;;;2.65;;
11653;SDS011;5883;48.818;9.114;2022-11-20T04:42:58;2.55;;;2.30;;
11653;SDS011;5883;48.818;9.114;2022-11-20T04:45:25;3.92;;;2.45;;
11653;SDS011;5883;48.818;9.114;2022-11-20T04:48:05;2.22;;;2.03;;
11653;SDS011;5883;48.818;9.114;2022-11-20T04:50:32;2.67;;;2.10;;
11653;SDS011;5883;48.818;9.114;2022-11-20T04:52:58;4.20;;;2.20;;
11653;SDS011;5883;48.818;9.114;2022-11-20T04:55:24;2.25;;;2.05;;
11653;SDS011;5883;48.818;9.114;2022-11-20T04:57:52;2.30;;;2.10;;
11653;SDS011;5883;48.818;9.114;2022-11-20T05:00:19;2.95;;;2.20;;
11653;SDS011;5883;48.818;9.114;2022-11-20T05:02:45;2.95;;;2.10;;
11653;SDS011;5883;48.818;9.114;2022-11-20T05:05:12;3.13;;;2.10;;
11653;SDS011;5883;48.818;9.114;2022-11-20T05:07:38;3.67;;;2.08;;
11653;SDS011;5883;48.818;9.114;2022-11-20T05:10:05;2.30;;;2.05;;
11653;SDS011;5883;48.818;9.114;2022-11-20T05:12:41;2.83;;;2.10;;
11653;SDS011;5883;48.818;9.114;2022-11-20T05:15:09;2.95;;;2.00;;
11653;SDS011;5883;48.818;9.114;2022-11-20T05:17:36;2.50;;;2.20;;
11653;SDS011;5883;48.818;9.114;2022-11-20T05:20:03;2.58;;;2.17;;
11653;SDS011;5883;48.818;9.114;2022-11-20T05:22:29;2.28;;;2.08;;
11653;SDS011;5883;48.818;9.114;2022-11-20T05:24:55;2.10;;;1.90;;
11653;SDS011;5883;48.818;9.114;2022-11-20T05:27:22;4.65;;;2.15;;
11653;SDS011;5883;48.818;9.114;2022-11-20T05:29:49;5.05;;;2.28;;
11653;SDS011;5883;48.818;9.114;2022-11-20T05:32:17;2.30;;;1.90;;
11653;SDS011;5883;48.818;9.114;2022-11-20T05:34:43;2.97;;;1.90;;
11653;SDS011;5883;48.818;9.114;2022-11-20T05:37:09;2.38;;;2.17;;
11653;SDS011;5883;48.818;9.114;2022-11-20T05:39:36;3.10;;;2.30;;
11653;SDS011;5883;48.818;9.114;2022-11-20T05:42:02;2.25;;;2.05;;
11653;SDS011;5883;48.818;9.114;2022-11-20T05:44:46;4.70;;;2.28;;
11653;SDS011;5883;48.818;9.114;2022-11-20T05:47:13;2.60;;;2.20;;
11653;SDS011;5883;48.818;9.114;2022-11-20T05:49:41;2.20;;;2.00;;
11653;SDS011;5883;48.818;9.114;2022-11-20T05:52:07;2.75;;;2.40;;
11653;SDS011;5883;48.818;9.114;2022-11-20T05:54:37;2.00;;;1.83;;
11653;SDS011;5883;48.818;9.114;2022-11-20T05:57:04;4.40;;;2.22;;
11653;SDS011;5883;48.818;9.114;2022-11-20T05:59:30;3.47;;;2.50;;
11653;SDS011;5883;48.818;9.114;2022-11-20T06:01:57;2.47;;;2.08;;
11653;SDS011;5883;48.818;9.114;2022-11-20T06:04:23;3.50;;;2.28;;
11653;SDS011;5883;48.818;9.114;2022-11-20T06:06:51;3.15;;;2.00;;
11653;SDS011;5883;48.818;9.114;2022-11-20T06:09:18;2.40;;;2.20;;
11653;SDS011;5883;48.818;9.114;2022-11-20T06:11:44;3.53;;;2.42;;
11653;SDS011;5883;48.818;9.114;2022-11-20T06:14:11;2.97;;;2.35;;
11653;SDS011;5883;48.818;9.114;2022-11-20T06:16:37;2.63;;;1.98;;
11653;SDS011;5883;48.818;9.114;2022-11-20T06:19:07;2.45;;;2.20;;
11653;SDS011;5883;48.818;9.114;2022-11-20T06:21:34;4.13;;;2.70;;
11653;SDS011;5883;48.818;9.114;2022-11-20T06:24:02;2.50;;;2.25;;
11653;SDS011;5883;48.818;9.114;2022-11-20T06:26:29;2.22;;;2.03;;
11653;SDS011;5883;48.818;9.114;2022-11-20T06:28:56;2.20;;;2.00;;
11653;SDS011;5883;48.818;9.114;2022-11-20T06:31:23;3.03;;;1.98;;
11653;SDS011;5883;48.818;9.114;2022-11-20T06:33:50;3.63;;;2.20;;
11653;SDS011;5883;48.818;9.114;2022-11-20T06:36:17;2.80;;;2.55;;
11653;SDS011;5883;48.818;9.114;2022-11-20T06:38:47;2.08;;;1.70;;
11653;SDS011;5883;48.818;9.114;2022-11-20T06:41:20;3.55;;;2.03;;
11653;SDS011;5883;48.818;9.114;2022-11-20T06:44:03;2.00;;;1.80;;
11653;SDS011;5883;48.818;9.114;2022-11-20T06:46:31;2.05;;;1.85;;
11653;SDS011;5883;48.818;9.114;2022-11-20T06:49:05;2.00;;;1.80;;
11653;SDS011;5883;48.818;9.114;2022-11-20T06:51:48;1.95;;;1.75;;
11653;SDS011;5883;48.818;9.114;2022-11-20T06:54:18;5.00;;;1.80;;
11653;SDS011;5883;48.818;9.114;2022-11-20T06:56:47;2.53;;;1.67;;
11653;SDS011;5883;48.818;9.114;2022-11-20T06:59:13;2.70;;;1.90;;
11653;SDS011;5883;48.818;9.114;2022-11-20T07:01:40;4.35;;;1.98;;
11653;SDS011;5883;48.818;9.114;2022-11-20T07:04:06;1.75;;;1.63;;
11653;SDS011;5883;48.818;9.114;2022-11-20T07:06:33;1.75;;;1.65;;
11653;SDS011;5883;48.818;9.114;2022-11-20T07:08:59;2.10;;;1.80;;
11653;SDS011;5883;48.818;9.114;2022-11-20T07:11:26;2.00;;;1.85;;
11653;SDS011;5883;48.818;9.114;2022-11-20T07:13:54;2.88;;;2.38;;
11653;SDS011;5883;48.818;9.114;2022-11-20T07:16:20;3.53;;;2.00;;
11653;SDS011;5883;48.818;9.114;2022-11-20T07:18:47;2.97;;;1.90;;
11653;SDS011;5883;48.818;9.114;2022-11-20T07:21:13;2.40;;;2.05;;
11653;SDS011;5883;48.818;9.114;2022-11-20T07:23:40;3.25;;;2.03;;
11653;SDS011;5883;48.818;9.114;2022-11-20T07:26:07;2.00;;;1.70;;
11653;SDS011;5883;48.818;9.114;2022-11-20T07:28:34;2.95;;;1.40;;
11653;SDS011;5883;48.818;9.114;2022-11-20T07:31:02;3.47;;;2.38;;
11653;SDS011;5883;48.818;9.114;2022-11-20T07:33:29;5.45;;;2.85;;
11653;SDS011;5883;48.818;9.114;2022-11-20T07:35:58;4.28;;;3.47;;
11653;SDS011;5883;48.818;9.114;2022-11-20T07:38:24;4.15;;;2.90;;
11653;SDS011;5883;48.818;9.114;2022-11-20T07:40:53;2.42;;;1.70;;
11653;SDS011;5883;48.818;9.114;2022-11-20T07:43:19;2.00;;;1.67;;
11653;SDS011;5883;48.818;9.114;2022-11-20T07:45:46;2.38;;;2.08;;
11653;SDS011;5883;48.818;9.114;2022-11-20T07:48:13;3.03;;;2.10;;
11653;SDS011;5883;48.818;9.114;2022-11-20T07:50:42;2.38;;;1.88;;
11653;SDS011;5883;48.818;9.114;2022-11-20T07:53:10;2.30;;;1.63;;
11653;SDS011;5883;48.818;9.114;2022-11-20T07:55:46;2.63;;;2.20;;
11653;SDS011;5883;48.818;9.114;2022-11-20T07:58:13;4.55;;;2.10;;
11653;SDS011;5883;48.818;9.114;2022-11-20T08:00:40;2.55;;;2.17;;
11653;SDS011;5883;48.818;9.114;2022-11-20T08:03:19;2.30;;;2.05;;
11653;SDS011;5883;48.818;9.114;2022-11-20T08:05:47;2.58;;;1.88;;
11653;SDS011;5883;48.818;9.114;2022-11-20T08:08:14;2.90;;;1.80;;
11653;SDS011;5883;48.818;9.114;2022-11-20T08:10:40;3.05;;;2.00;;
11653;SDS011;5883;48.818;9.114;2022-11-20T08:13:08;2.00;;;1.90;;
11653;SDS011;5883;48.818;9.114;2022-11-20T08:15:52;3.55;;;1.95;;
11653;SDS011;5883;48.818;9.114;2022-11-20T08:18:20;2.22;;;1.95;;
11653;SDS011;5883;48.818;9.114;2022-11-20T08:20:46;3.67;;;2.20;;
11653;SDS011;5883;48.818;9.114;2022-11-20T08:23:13;3.78;;;1.90;;
11653;SDS011;5883;48.818;9.114;2022-11-20T08:25:39;1.75;;;1.65;;
11653;SDS011;5883;48.818;9.114;2022-11-20T08:28:07;1.83;;;1.60;;
11653;SDS011;5883;48.818;9.114;2022-11-20T08:30:34;2.03;;;1.70;;
11653;SDS011;5883;48.818;9.114;2022-11-20T08:33:02;2.05;;;1.50;;
11653;SDS011;5883;48.818;9.114;2022-11-20T08:35:33;2.80;;;1.63;;
11653;SDS011;5883;48.818;9.114;2022-11-20T08:38:01;1.75;;;1.60;;
11653;SDS011;5883;48.818;9.114;2022-11-20T08:40:27;1.38;;;1.27;;
11653;SDS011;5883;48.818;9.114;2022-11-20T08:42:54;1.33;;;1.23;;
11653;SDS011;5883;48.818;9.114;2022-11-20T08:45:20;1.58;;;1.48;;
11653;SDS011;5883;48.818;9.114;2022-11-20T08:47:47;1.55;;;1.45;;
11653;SDS011;5883;48.818;9.114;2022-11-20T08:50:14;1.40;;;1.20;;
11653;SDS011;5883;48.818;9.114;2022-11-20T08:52:42;1.20;;;1.00;;
11653;SDS011;5883;48.818;9.114;2022-11-20T08:55:09;1.30;;;1.20;;
11653;SDS011;5883;48.818;9.114;2022-11-20T08:57:36;1.35;;;1.25;;
11653;SDS011;5883;48.818;9.114;2022-11-20T09:00:03;2.22;;;1.60;;
11653;SDS011;5883;48.818;9.114;2022-11-20T09:02:30;1.95;;;1.48;;
11653;SDS011;5883;48.818;9.114;2022-11-20T09:04:57;3.90;;;1.17;;
11653;SDS011;5883;48.818;9.114;2022-11-20T09:07:23;2.38;;;1.70;;
11653;SDS011;5883;48.818;9.114;2022-11-20T09:09:51;2.03;;;1.70;;
11653;SDS011;5883;48.818;9.114;2022-11-20T09:12:18;1.63;;;1.35;;
11653;SDS011;5883;48.818;9.114;2022-11-20T09:14:45;1.83;;;1.52;;
11653;SDS011;5883;48.818;9.114;2022-11-20T09:17:11;3.05;;;1.52;;
11653;SDS011;5883;48.818;9.114;2022-11-20T09:19:40;1.80;;;1.67;;
11653;SDS011;5883;48.818;9.114;2022-11-20T09:22:06;2.80;;;1.98;;
11653;SDS011;5883;48.818;9.114;2022-11-20T09:24:33;3.15;;;2.20;;
11653;SDS011;5883;48.818;9.114;2022-11-20T09:27:02;1.95;;;1.75;;
11653;SDS011;5883;48.818;9.114;2022-11-20T09:29:29;1.55;;;1.30;;
11653;SDS011;5883;48.818;9.114;2022-11-20T09:31:55;1.85;;;1.70;;
11653;SDS011;5883;48.818;9.114;2022-11-20T09:34:22;1.40;;;1.30;;
11653;SDS011;5883;48.818;9.114;2022-11-20T09:36:48;1.40;;;1.10;;
11653;SDS011;5883;48.818;9.114;2022-11-20T09:39:15;1.25;;;1.15;;
11653;SDS011;5883;48.818;9.114;2022-11-20T09:41:46;1.00;;;0.90;;
11653;SDS011;5883;48.818;9.114;2022-11-20T09:44:22;1.13;;;1.02;;
11653;SDS011;5883;48.818;9.114;2022-11-20T09:46:53;1.20;;;1.10;;
11653;SDS011;5883;48.818;9.114;2022-11-20T09:49:23;1.30;;;1.20;;
11653;SDS011;5883;48.818;9.114;2022-11-20T09:51:53;1.15;;;1.00;;
11653;SDS011;5883;48.818;9.114;2022-11-20T09:54:25;1.23;;;1.13;;
11653;SDS011;5883;48.818;9.114;2022-11-20T09:56:53;1.50;;;1.40;;
11653;SDS011;5883;48.818;9.114;2022-11-20T09:59:33;1.33;;;1.20;;
11653;SDS011;5883;48.818;9.114;2022-11-20T10:02:00;1.33;;;1.23;;
11653;SDS011;5883;48.818;9.114;2022-11-20T10:04:27;1.25;;;1.15;;
11653;SDS011;5883;48.818;9.114;2022-11-20T10:06:56;1.20;;;1.10;;
11653;SDS011;5883;48.818;9.114;2022-11-20T10:09:27;1.15;;;1.05;;
11653;SDS011;5883;48.818;9.114;2022-11-20T10:12:01;2.40;;;1.40;;
11653;SDS011;5883;48.818;9.114;2022-11-20T10:14:34;1.98;;;1.10;;
11653;SDS011;5883;48.818;9.114;2022-11-20T10:17:11;1.25;;;1.15;;
11653;SDS011;5883;48.818;9.114;2022-11-20T10:19:45;1.30;;;1.20;;
11653;SDS011;5883;48.818;9.114;2022-11-20T10:22:17;2.05;;;1.33;;
11653;SDS011;5883;48.818;9.114;2022-11-20T10:24:48;1.65;;;1.20;;
11653;SDS011;5883;48.818;9.114;2022-11-20T10:30:13;1.30;;;1.10;;
11653;SDS011;5883;48.818;9.114;2022-11-20T10:32:41;1.25;;;1.15;;
11653;SDS011;5883;48.818;9.114;2022-11-20T10:35:14;1.55;;;1.30;;
11653;SDS011;5883;48.818;9.114;2022-11-20T10:37:42;1.30;;;1.20;;
11653;SDS011;5883;48.818;9.114;2022-11-20T10:40:17;1.40;;;1.30;;
11653;SDS011;5883;48.818;9.114;2022-11-20T10:42:44;1.90;;;1.35;;
11653;SDS011;5883;48.818;9.114;2022-11-20T10:45:15;1.48;;;1.38;;
11653;SDS011;5883;48.818;9.114;2022-11-20T10:47:45;1.90;;;1.70;;
11653;SDS011;5883;48.818;9.114;2022-11-20T10:50:14;2.13;;;1.92;;
11653;SDS011;5883;48.818;9.114;2022-11-20T10:52:45;2.30;;;1.73;;
11653;SDS011;5883;48.818;9.114;2022-11-20T10:55:18;1.77;;;1.60;;
11653;SDS011;5883;48.818;9.114;2022-11-20T10:57:51;1.70;;;1.60;;
11653;SDS011;5883;48.818;9.114;2022-11-20T11:00:20;1.55;;;1.33;;
11653;SDS011;5883;48.818;9.114;2022-11-20T11:02:48;1.42;;;1.33;;
11653;SDS011;5883;48.818;9.114;2022-11-20T11:05:18;1.63;;;1.50;;
11653;SDS011;5883;48.818;9.114;2022-11-20T11:07:47;3.45;;;1.95;;
11653;SDS011;5883;48.818;9.114;2022-11-20T11:10:16;4.03;;;2.42;;
11653;SDS011;5883;48.818;9.114;2022-11-20T11:12:43;2.65;;;2.08;;
11653;SDS011;5883;48.818;9.114;2022-11-20T11:15:12;2.15;;;1.77;;
11653;SDS011;5883;48.818;9.114;2022-11-20T11:17:46;1.77;;;1.67;;
11653;SDS011;5883;48.818;9.114;2022-11-20T11:20:17;2.17;;;1.90;;
11653;SDS011;5883;48.818;9.114;2022-11-20T11:22:44;2.08;;;1.60;;
11653;SDS011;5883;48.818;9.114;2022-11-20T11:25:18;2.25;;;1.65;;
11653;SDS011;5883;48.818;9.114;2022-11-20T11:27:45;1.95;;;1.80;;
11653;SDS011;5883;48.818;9.114;2022-11-20T11:30:13;5.65;;;2.88;;
11653;SDS011;5883;48.818;9.114;2022-11-20T11:32:40;2.55;;;2.10;;
11653;SDS011;5883;48.818;9.114;2022-11-20T11:35:18;3.30;;;2.55;;
11653;SDS011;5883;48.818;9.114;2022-11-20T11:37:45;4.25;;;2.60;;
11653;SDS011;5883;48.818;9.114;2022-11-20T11:40:12;2.60;;;2.08;;
11653;SDS011;5883;48.818;9.114;2022-11-20T11:42:41;2.50;;;1.80;;
11653;SDS011;5883;48.818;9.114;2022-11-20T11:45:11;3.20;;;1.90;;
11653;SDS011;5883;48.818;9.114;2022-11-20T11:47:43;3.15;;;1.85;;
11653;SDS011;5883;48.818;9.114;2022-11-20T11:50:19;2.78;;;1.75;;
11653;SDS011;5883;48.818;9.114;2022-11-20T11:52:48;3.20;;;1.77;;
11653;SDS011;5883;48.818;9.114;2022-11-20T11:55:16;3.67;;;2.17;;
11653;SDS011;5883;48.818;9.114;2022-11-20T11:57:45;4.22;;;2.80;;
11653;SDS011;5883;48.818;9.114;2022-11-20T12:00:13;3.63;;;2.70;;
11653;SDS011;5883;48.818;9.114;2022-11-20T12:02:42;4.93;;;3.70;;
11653;SDS011;5883;48.818;9.114;2022-11-20T12:05:19;5.50;;;3.33;;
11653;SDS011;5883;48.818;9.114;2022-11-20T12:07:47;3.85;;;2.97;;
11653;SDS011;5883;48.818;9.114;2022-11-20T12:10:19;5.47;;;1.90;;
11653;SDS011;5883;48.818;9.114;2022-11-20T12:12:48;2.20;;;1.90;;
11653;SDS011;5883;48.818;9.114;2022-11-20T12:15:19;4.95;;;1.80;;
11653;SDS011;5883;48.818;9.114;2022-11-20T12:17:48;3.35;;;1.92;;
11653;SDS011;5883;48.818;9.114;2022-11-20T12:20:14;2.80;;;1.40;;
11653;SDS011;5883;48.818;9.114;2022-11-20T12:22:44;1.38;;;1.13;;
11653;SDS011;5883;48.818;9.114;2022-11-20T12:25:16;2.83;;;1.65;;
11653;SDS011;5883;48.818;9.114;2022-11-20T12:27:48;3.65;;;1.50;;
11653;SDS011;5883;48.818;9.114;2022-11-20T12:30:17;1.70;;;1.33;;
11653;SDS011;5883;48.818;9.114;2022-11-20T12:33:04;2.72;;;1.40;;
11653;SDS011;5883;48.818;9.114;2022-11-20T12:35:39;2.63;;;1.30;;
11653;SDS011;5883;48.818;9.114;2022-11-20T12:38:18;2.97;;;1.38;;
11653;SDS011;5883;48.818;9.114;2022-11-20T12:40:52;2.20;;;1.27;;
11653;SDS011;5883;48.818;9.114;2022-11-20T12:43:21;2.15;;;1.20;;
11653;SDS011;5883;48.818;9.114;2022-11-20T12:46:13;2.05;;;1.40;;
11653;SDS011;5883;48.818;9.114;2022-11-20T12:48:56;1.23;;;1.13;;
11653;SDS011;5883;48.818;9.114;2022-11-20T12:51:28;2.92;;;1.20;;
11653;SDS011;5883;48.818;9.114;2022-11-20T12:54:00;2.25;;;1.15;;
11653;SDS011;5883;48.818;9.114;2022-11-20T12:56:33;1.33;;;1.20;;
11653;SDS011;5883;48.818;9.114;2022-11-20T12:59:07;3.10;;;1.05;;
11653;SDS011;5883;48.818;9.114;2022-11-20T13:01:40;1.80;;;1.20;;
11653;SDS011;5883;48.818;9.114;2022-11-20T13:04:21;1.60;;;1.15;;
11653;SDS011;5883;48.818;9.114;2022-11-20T13:06:51;3.08;;;1.70;;
11653;SDS011;5883;48.818;9.114;2022-11-20T13:09:21;1.20;;;1.10;;
11653;SDS011;5883;48.818;9.114;2022-11-20T13:11:50;1.80;;;1.02;;
11653;SDS011;5883;48.818;9.114;2022-11-20T13:14:23;4.93;;;1.35;;
11653;SDS011;5883;48.818;9.114;2022-11-20T13:16:53;3.22;;;1.40;;
11653;SDS011;5883;48.818;9.114;2022-11-20T13:19:21;1.83;;;1.23;;
11653;SDS011;5883;48.818;9.114;2022-11-20T13:21:49;3.90;;;1.35;;
11653;SDS011;5883;48.818;9.114;2022-11-20T13:24:24;2.70;;;1.10;;
11653;SDS011;5883;48.818;9.114;2022-11-20T13:27:05;4.68;;;1.20;;
11653;SDS011;5883;48.818;9.114;2022-11-20T13:29:44;3.17;;;1.20;;
11653;SDS011;5883;48.818;9.114;2022-11-20T13:32:13;2.28;;;1.17;;
11653;SDS011;5883;48.818;9.114;2022-11-20T13:34:50;2.10;;;1.20;;
11653;SDS011;5883;48.818;9.114;2022-11-20T13:37:23;1.55;;;1.00;;
11653;SDS011;5883;48.818;9.114;2022-11-20T13:39:52;2.35;;;1.48;;
11653;SDS011;5883;48.818;9.114;2022-11-20T13:42:20;2.03;;;1.30;;
11653;SDS011;5883;48.818;9.114;2022-11-20T13:44:50;2.55;;;1.25;;
11653;SDS011;5883;48.818;9.114;2022-11-20T13:47:19;2.15;;;1.33;;
11653;SDS011;5883;48.818;9.114;2022-11-20T13:49:46;5.78;;;1.30;;
11653;SDS011;5883;48.818;9.114;2022-11-20T13:55:10;2.65;;;1.63;;
11653;SDS011;5883;48.818;9.114;2022-11-20T13:57:40;2.47;;;1.38;;
11653;SDS011;5883;48.818;9.114;2022-11-20T14:00:12;3.50;;;1.00;;
11653;SDS011;5883;48.818;9.114;2022-11-20T14:02:39;1.90;;;1.27;;
11653;SDS011;5883;48.818;9.114;2022-11-20T14:05:06;1.75;;;1.13;;
11653;SDS011;5883;48.818;9.114;2022-11-20T14:07:40;1.40;;;1.10;;
11653;SDS011;5883;48.818;9.114;2022-11-20T14:10:19;2.13;;;1.10;;
11653;SDS011;5883;48.818;9.114;2022-11-20T14:12:46;1.25;;;1.00;;
11653;SDS011;5883;48.818;9.114;2022-11-20T14:15:23;1.60;;;1.40;;
11653;SDS011;5883;48.818;9.114;2022-11-20T14:17:49;1.10;;;1.00;;
11653;SDS011;5883;48.818;9.114;2022-11-20T14:20:16;1.40;;;1.30;;
11653;SDS011;5883;48.818;9.114;2022-11-20T14:22:48;1.50;;;1.25;;
11653;SDS011;5883;48.818;9.114;2022-11-20T14:25:20;1.55;;;1.40;;
11653;SDS011;5883;48.818;9.114;2022-11-20T14:27:50;1.50;;;1.30;;
11653;SDS011;5883;48.818;9.114;2022-11-20T14:30:17;2.25;;;1.23;;
11653;SDS011;5883;48.818;9.114;2022-11-20T14:32:44;1.30;;;1.20;;
11653;SDS011;5883;48.818;9.114;2022-11-20T14:35:14;2.20;;;1.38;;
11653;SDS011;5883;48.818;9.114;2022-11-20T14:37:44;1.60;;;1.25;;
11653;SDS011;5883;48.818;9.114;2022-11-20T14:40:25;1.48;;;1.27;;
11653;SDS011;5883;48.818;9.114;2022-11-20T14:42:52;2.55;;;1.30;;
11653;SDS011;5883;48.818;9.114;2022-11-20T14:45:19;1.52;;;1.00;;
11653;SDS011;5883;48.818;9.114;2022-11-20T14:47:46;2.63;;;1.30;;
11653;SDS011;5883;48.818;9.114;2022-11-20T14:50:14;2.67;;;1.33;;
11653;SDS011;5883;48.818;9.114;2022-11-20T14:52:49;2.95;;;1.40;;
11653;SDS011;5883;48.818;9.114;2022-11-20T14:55:25;1.50;;;1.40;;
11653;SDS011;5883;48.818;9.114;2022-11-20T14:57:54;2.92;;;1.80;;
11653;SDS011;5883;48.818;9.114;2022-11-20T15:00:21;1.88;;;1.45;;
11653;SDS011;5883;48.818;9.114;2022-11-20T15:02:48;4.18;;;1.90;;
11653;SDS011;5883;48.818;9.114;2022-11-20T15:05:16;2.22;;;1.55;;
11653;SDS011;5883;48.818;9.114;2022-11-20T15:07:44;4.53;;;2.28;;
11653;SDS011;5883;48.818;9.114;2022-11-20T15:10:12;3.08;;;2.20;;
11653;SDS011;5883;48.818;9.114;2022-11-20T15:12:45;2.58;;;1.80;;
11653;SDS011;5883;48.818;9.114;2022-11-20T15:15:12;3.53;;;1.77;;
11653;SDS011;5883;48.818;9.114;2022-11-20T15:17:41;2.78;;;1.70;;
11653;SDS011;5883;48.818;9.114;2022-11-20T15:20:09;2.75;;;1.60;;